sensor_id;sensor_type;location;lat;lon;timestamp;pressure;altitude;pressure_sealevel;temperature;humidity
54870;BME280;40756;-37.950;145.008;2023-11-18T00:00:11;101878.63;;;16.80;40.61
54870;BME280;40756;-37.950;145.008;2023-11-18T00:02:41;101879.28;;;16.68;40.20
54870;BME280;40756;-37.950;145.008;2023-11-18T00:05:10;101879.60;;;17.70;39.95
54870;BME280;40756;-37.950;145.008;2023-11-18T00:07:40;101879.00;;;17.29;39.59
54870;BME280;40756;-37.950;145.008;2023-11-18T00:10:10;101876.80;;;17.06;39.67
54870;BME280;40756;-37.950;145.008;2023-11-18T00:12:40;101875.97;;;16.93;40.50
54870;BME280;40756;-37.950;145.008;2023-11-18T00:15:12;101875.31;;;17.47;39.72
54870;BME280;40756;-37.950;145.008;2023-11-18T00:17:42;101874.79;;;17.36;40.21
54870;BME280;40756;-37.950;145.008;2023-11-18T00:20:12;101876.37;;;17.22;40.16
54870;BME280;40756;-37.950;145.008;2023-11-18T00:22:42;101869.71;;;18.31;39.08
54870;BME280;40756;-37.950;145.008;2023-11-18T00:25:12;101877.71;;;16.65;40.31
54870;BME280;40756;-37.950;145.008;2023-11-18T00:27:42;101868.92;;;17.72;39.23
54870;BME280;40756;-37.950;145.008;2023-11-18T00:30:12;101874.58;;;16.49;40.20
54870;BME280;40756;-37.950;145.008;2023-11-18T00:32:41;101876.16;;;14.97;41.80
54870;BME280;40756;-37.950;145.008;2023-11-18T00:35:11;101865.79;;;15.82;41.53
54870;BME280;40756;-37.950;145.008;2023-11-18T00:37:41;101863.54;;;16.78;40.36
54870;BME280;40756;-37.950;145.008;2023-11-18T00:40:10;101856.79;;;17.14;39.59
54870;BME280;40756;-37.950;145.008;2023-11-18T00:42:39;101854.60;;;17.01;40.33
54870;BME280;40756;-37.950;145.008;2023-11-18T00:45:09;101853.79;;;17.11;39.95
54870;BME280;40756;-37.950;145.008;2023-11-18T00:47:38;101848.24;;;17.57;39.82
54870;BME280;40756;-37.950;145.008;2023-11-18T00:50:09;101836.98;;;18.22;38.20
54870;BME280;40756;-37.950;145.008;2023-11-18T00:52:38;101838.33;;;17.51;39.79
54870;BME280;40756;-37.950;145.008;2023-11-18T00:55:09;101833.06;;;17.65;38.85
54870;BME280;40756;-37.950;145.008;2023-11-18T00:57:38;101825.42;;;18.21;39.19
54870;BME280;40756;-37.950;145.008;2023-11-18T01:00:11;101828.12;;;16.32;41.13
54870;BME280;40756;-37.950;145.008;2023-11-18T01:02:41;101822.76;;;16.91;40.53
54870;BME280;40756;-37.950;145.008;2023-11-18T01:05:10;101825.10;;;17.40;40.00
54870;BME280;40756;-37.950;145.008;2023-11-18T01:07:40;101823.98;;;16.76;40.58
54870;BME280;40756;-37.950;145.008;2023-11-18T01:10:10;101819.96;;;17.72;39.72
54870;BME280;40756;-37.950;145.008;2023-11-18T01:12:40;101814.26;;;18.19;38.99
54870;BME280;40756;-37.950;145.008;2023-11-18T01:15:10;101811.44;;;18.07;39.27
54870;BME280;40756;-37.950;145.008;2023-11-18T01:17:39;101813.16;;;17.77;39.26
54870;BME280;40756;-37.950;145.008;2023-11-18T01:20:09;101803.54;;;18.06;39.18
54870;BME280;40756;-37.950;145.008;2023-11-18T01:22:39;101809.50;;;17.39;39.18
54870;BME280;40756;-37.950;145.008;2023-11-18T01:25:10;101811.93;;;17.49;39.46
54870;BME280;40756;-37.950;145.008;2023-11-18T01:27:39;101807.68;;;16.94;40.92
54870;BME280;40756;-37.950;145.008;2023-11-18T01:30:09;101805.40;;;17.65;39.81
54870;BME280;40756;-37.950;145.008;2023-11-18T01:32:39;101800.98;;;17.78;39.35
54870;BME280;40756;-37.950;145.008;2023-11-18T01:35:09;101803.54;;;18.46;38.48
54870;BME280;40756;-37.950;145.008;2023-11-18T01:37:39;101796.47;;;17.63;38.78
54870;BME280;40756;-37.950;145.008;2023-11-18T01:40:09;101791.08;;;17.61;40.10
54870;BME280;40756;-37.950;145.008;2023-11-18T01:42:40;101789.42;;;17.77;38.48
54870;BME280;40756;-37.950;145.008;2023-11-18T01:45:10;101788.10;;;18.34;37.75
54870;BME280;40756;-37.950;145.008;2023-11-18T01:47:40;101784.49;;;18.89;37.13
54870;BME280;40756;-37.950;145.008;2023-11-18T01:50:12;101785.27;;;18.56;37.78
54870;BME280;40756;-37.950;145.008;2023-11-18T01:52:42;101785.78;;;18.88;36.86
54870;BME280;40756;-37.950;145.008;2023-11-18T01:55:12;101778.91;;;19.67;36.06
54870;BME280;40756;-37.950;145.008;2023-11-18T01:57:42;101776.24;;;19.00;36.60
54870;BME280;40756;-37.950;145.008;2023-11-18T02:00:14;101774.33;;;19.07;37.17
54870;BME280;40756;-37.950;145.008;2023-11-18T02:02:44;101774.09;;;18.17;38.62
54870;BME280;40756;-37.950;145.008;2023-11-18T02:05:13;101772.47;;;17.81;38.65
54870;BME280;40756;-37.950;145.008;2023-11-18T02:07:43;101771.95;;;19.55;37.27
54870;BME280;40756;-37.950;145.008;2023-11-18T02:10:13;101770.45;;;18.54;37.80
54870;BME280;40756;-37.950;145.008;2023-11-18T02:12:48;101772.89;;;18.23;38.60
54870;BME280;40756;-37.950;145.008;2023-11-18T02:15:22;101763.97;;;19.20;37.84
54870;BME280;40756;-37.950;145.008;2023-11-18T02:17:54;101761.70;;;19.54;36.85
54870;BME280;40756;-37.950;145.008;2023-11-18T02:20:24;101756.86;;;19.03;37.21
54870;BME280;40756;-37.950;145.008;2023-11-18T02:22:55;101751.85;;;18.93;37.72
54870;BME280;40756;-37.950;145.008;2023-11-18T02:25:25;101749.22;;;19.95;36.79
54870;BME280;40756;-37.950;145.008;2023-11-18T02:27:56;101747.88;;;19.49;37.54
54870;BME280;40756;-37.950;145.008;2023-11-18T02:30:26;101751.45;;;20.85;35.57
54870;BME280;40756;-37.950;145.008;2023-11-18T02:32:59;101745.58;;;20.61;35.60
54870;BME280;40756;-37.950;145.008;2023-11-18T02:35:41;101743.68;;;20.01;35.59
54870;BME280;40756;-37.950;145.008;2023-11-18T02:38:15;101740.29;;;20.28;35.68
54870;BME280;40756;-37.950;145.008;2023-11-18T02:40:45;101745.31;;;20.54;35.07
54870;BME280;40756;-37.950;145.008;2023-11-18T02:43:16;101741.24;;;20.27;35.72
54870;BME280;40756;-37.950;145.008;2023-11-18T02:45:47;101738.81;;;20.66;34.87
54870;BME280;40756;-37.950;145.008;2023-11-18T02:48:17;101739.65;;;18.49;37.74
54870;BME280;40756;-37.950;145.008;2023-11-18T02:50:46;101734.65;;;18.44;38.81
54870;BME280;40756;-37.950;145.008;2023-11-18T02:53:15;101729.46;;;19.49;37.30
54870;BME280;40756;-37.950;145.008;2023-11-18T02:55:45;101723.46;;;18.77;36.97
54870;BME280;40756;-37.950;145.008;2023-11-18T02:58:14;101724.64;;;19.50;36.73
54870;BME280;40756;-37.950;145.008;2023-11-18T03:00:44;101723.81;;;21.30;34.00
54870;BME280;40756;-37.950;145.008;2023-11-18T03:03:13;101725.14;;;20.02;34.98
54870;BME280;40756;-37.950;145.008;2023-11-18T03:05:43;101719.59;;;20.10;35.61
54870;BME280;40756;-37.950;145.008;2023-11-18T03:08:12;101725.41;;;20.06;36.15
54870;BME280;40756;-37.950;145.008;2023-11-18T03:10:42;101718.01;;;20.12;36.29
54870;BME280;40756;-37.950;145.008;2023-11-18T03:13:11;101715.05;;;19.75;36.78
54870;BME280;40756;-37.950;145.008;2023-11-18T03:15:40;101710.36;;;20.98;35.43
54870;BME280;40756;-37.950;145.008;2023-11-18T03:18:10;101706.57;;;19.91;36.19
54870;BME280;40756;-37.950;145.008;2023-11-18T03:20:39;101700.93;;;19.56;37.57
54870;BME280;40756;-37.950;145.008;2023-11-18T03:23:09;101702.59;;;20.02;37.40
54870;BME280;40756;-37.950;145.008;2023-11-18T03:25:39;101698.64;;;19.90;37.37
54870;BME280;40756;-37.950;145.008;2023-11-18T03:28:08;101695.94;;;21.16;36.31
54870;BME280;40756;-37.950;145.008;2023-11-18T03:30:38;101700.31;;;20.66;36.46
54870;BME280;40756;-37.950;145.008;2023-11-18T03:33:07;101707.24;;;19.99;37.35
54870;BME280;40756;-37.950;145.008;2023-11-18T03:35:37;101699.38;;;20.83;36.27
54870;BME280;40756;-37.950;145.008;2023-11-18T03:38:06;101700.26;;;21.24;35.68
54870;BME280;40756;-37.950;145.008;2023-11-18T03:40:36;101704.89;;;19.93;37.16
54870;BME280;40756;-37.950;145.008;2023-11-18T03:43:05;101700.92;;;20.19;37.06
54870;BME280;40756;-37.950;145.008;2023-11-18T03:45:34;101699.53;;;21.04;36.72
54870;BME280;40756;-37.950;145.008;2023-11-18T03:48:04;101694.11;;;20.64;36.88
54870;BME280;40756;-37.950;145.008;2023-11-18T03:50:33;101700.65;;;20.96;35.97
54870;BME280;40756;-37.950;145.008;2023-11-18T03:53:03;101701.61;;;19.64;37.85
54870;BME280;40756;-37.950;145.008;2023-11-18T03:55:32;101699.74;;;19.70;37.91
54870;BME280;40756;-37.950;145.008;2023-11-18T03:58:02;101698.82;;;20.48;36.88
54870;BME280;40756;-37.950;145.008;2023-11-18T04:00:31;101694.29;;;20.69;36.77
54870;BME280;40756;-37.950;145.008;2023-11-18T04:03:01;101691.62;;;21.26;36.34
54870;BME280;40756;-37.950;145.008;2023-11-18T04:05:30;101697.85;;;19.83;36.97
54870;BME280;40756;-37.950;145.008;2023-11-18T04:07:59;101696.40;;;19.90;37.57
54870;BME280;40756;-37.950;145.008;2023-11-18T04:10:29;101687.38;;;20.20;37.34
54870;BME280;40756;-37.950;145.008;2023-11-18T04:12:58;101684.93;;;19.41;37.81
54870;BME280;40756;-37.950;145.008;2023-11-18T04:15:28;101679.24;;;19.87;37.79
54870;BME280;40756;-37.950;145.008;2023-11-18T04:17:57;101680.48;;;20.55;37.07
54870;BME280;40756;-37.950;145.008;2023-11-18T04:20:27;101673.74;;;21.71;35.59
54870;BME280;40756;-37.950;145.008;2023-11-18T04:22:56;101673.64;;;21.35;36.23
54870;BME280;40756;-37.950;145.008;2023-11-18T04:25:26;101667.44;;;21.22;35.43
54870;BME280;40756;-37.950;145.008;2023-11-18T04:27:56;101671.40;;;20.69;35.42
54870;BME280;40756;-37.950;145.008;2023-11-18T04:30:25;101670.17;;;20.12;35.87
54870;BME280;40756;-37.950;145.008;2023-11-18T04:32:55;101670.62;;;20.66;36.35
54870;BME280;40756;-37.950;145.008;2023-11-18T04:35:24;101668.89;;;20.68;35.99
54870;BME280;40756;-37.950;145.008;2023-11-18T04:37:54;101666.37;;;20.87;36.55
54870;BME280;40756;-37.950;145.008;2023-11-18T04:40:23;101666.73;;;19.53;37.40
54870;BME280;40756;-37.950;145.008;2023-11-18T04:42:52;101664.62;;;19.67;37.76
54870;BME280;40756;-37.950;145.008;2023-11-18T04:45:22;101663.88;;;19.53;38.24
54870;BME280;40756;-37.950;145.008;2023-11-18T04:47:51;101665.08;;;19.81;37.71
54870;BME280;40756;-37.950;145.008;2023-11-18T04:50:21;101658.76;;;20.23;36.72
54870;BME280;40756;-37.950;145.008;2023-11-18T04:52:50;101664.19;;;20.49;35.96
54870;BME280;40756;-37.950;145.008;2023-11-18T04:55:20;101653.17;;;20.83;35.94
54870;BME280;40756;-37.950;145.008;2023-11-18T04:57:49;101653.38;;;20.66;35.37
54870;BME280;40756;-37.950;145.008;2023-11-18T05:00:19;101647.87;;;19.88;36.36
54870;BME280;40756;-37.950;145.008;2023-11-18T05:02:48;101653.36;;;19.66;37.35
54870;BME280;40756;-37.950;145.008;2023-11-18T05:05:18;101647.04;;;20.35;36.85
54870;BME280;40756;-37.950;145.008;2023-11-18T05:07:47;101646.97;;;19.05;38.73
54870;BME280;40756;-37.950;145.008;2023-11-18T05:10:16;101646.66;;;19.22;38.70
54870;BME280;40756;-37.950;145.008;2023-11-18T05:12:46;101640.55;;;20.08;37.61
54870;BME280;40756;-37.950;145.008;2023-11-18T05:15:15;101637.06;;;20.89;37.45
54870;BME280;40756;-37.950;145.008;2023-11-18T05:17:45;101633.12;;;21.21;37.94
54870;BME280;40756;-37.950;145.008;2023-11-18T05:20:14;101636.07;;;20.55;38.19
54870;BME280;40756;-37.950;145.008;2023-11-18T05:22:44;101639.02;;;19.98;39.12
54870;BME280;40756;-37.950;145.008;2023-11-18T05:25:13;101637.27;;;19.34;39.81
54870;BME280;40756;-37.950;145.008;2023-11-18T05:27:43;101635.08;;;20.08;39.95
54870;BME280;40756;-37.950;145.008;2023-11-18T05:30:14;101632.77;;;19.45;40.32
54870;BME280;40756;-37.950;145.008;2023-11-18T05:32:43;101626.91;;;19.57;40.39
54870;BME280;40756;-37.950;145.008;2023-11-18T05:35:13;101624.24;;;19.73;40.85
54870;BME280;40756;-37.950;145.008;2023-11-18T05:37:42;101627.89;;;19.71;40.98
54870;BME280;40756;-37.950;145.008;2023-11-18T05:40:12;101633.47;;;19.29;40.66
54870;BME280;40756;-37.950;145.008;2023-11-18T05:42:42;101624.18;;;19.12;41.57
54870;BME280;40756;-37.950;145.008;2023-11-18T05:45:11;101621.74;;;20.42;41.24
54870;BME280;40756;-37.950;145.008;2023-11-18T05:47:41;101617.11;;;20.73;39.74
54870;BME280;40756;-37.950;145.008;2023-11-18T05:50:10;101618.26;;;20.20;40.36
54870;BME280;40756;-37.950;145.008;2023-11-18T05:52:40;101622.04;;;19.86;40.79
54870;BME280;40756;-37.950;145.008;2023-11-18T05:55:09;101622.29;;;19.61;40.37
54870;BME280;40756;-37.950;145.008;2023-11-18T05:57:38;101626.19;;;18.51;42.22
54870;BME280;40756;-37.950;145.008;2023-11-18T06:00:09;101619.61;;;19.16;41.95
54870;BME280;40756;-37.950;145.008;2023-11-18T06:02:38;101618.00;;;20.02;40.48
54870;BME280;40756;-37.950;145.008;2023-11-18T06:05:08;101615.39;;;18.26;43.54
54870;BME280;40756;-37.950;145.008;2023-11-18T06:07:38;101612.72;;;19.21;43.26
54870;BME280;40756;-37.950;145.008;2023-11-18T06:10:08;101610.72;;;19.43;42.32
54870;BME280;40756;-37.950;145.008;2023-11-18T06:12:38;101613.83;;;19.77;41.71
54870;BME280;40756;-37.950;145.008;2023-11-18T06:15:08;101615.51;;;19.59;42.11
54870;BME280;40756;-37.950;145.008;2023-11-18T06:17:38;101612.46;;;20.34;41.21
54870;BME280;40756;-37.950;145.008;2023-11-18T06:20:08;101610.64;;;20.04;41.87
54870;BME280;40756;-37.950;145.008;2023-11-18T06:22:38;101607.93;;;19.69;41.68
54870;BME280;40756;-37.950;145.008;2023-11-18T06:25:08;101604.17;;;20.36;40.99
54870;BME280;40756;-37.950;145.008;2023-11-18T06:27:37;101607.98;;;19.38;42.44
54870;BME280;40756;-37.950;145.008;2023-11-18T06:30:08;101606.09;;;20.49;40.99
54870;BME280;40756;-37.950;145.008;2023-11-18T06:32:38;101606.73;;;20.13;40.98
54870;BME280;40756;-37.950;145.008;2023-11-18T06:35:08;101617.09;;;19.31;43.23
54870;BME280;40756;-37.950;145.008;2023-11-18T06:37:38;101615.96;;;19.19;43.70
54870;BME280;40756;-37.950;145.008;2023-11-18T06:40:08;101609.95;;;19.83;42.49
54870;BME280;40756;-37.950;145.008;2023-11-18T06:42:38;101606.44;;;18.59;43.76
54870;BME280;40756;-37.950;145.008;2023-11-18T06:45:08;101605.46;;;18.33;45.35
54870;BME280;40756;-37.950;145.008;2023-11-18T06:47:37;101601.26;;;19.06;44.05
54870;BME280;40756;-37.950;145.008;2023-11-18T06:50:07;101599.73;;;19.67;43.48
54870;BME280;40756;-37.950;145.008;2023-11-18T06:52:38;101601.79;;;19.59;43.11
54870;BME280;40756;-37.950;145.008;2023-11-18T06:55:08;101602.02;;;19.42;43.67
54870;BME280;40756;-37.950;145.008;2023-11-18T06:57:37;101610.97;;;19.97;42.99
54870;BME280;40756;-37.950;145.008;2023-11-18T07:00:08;101615.20;;;19.43;42.55
54870;BME280;40756;-37.950;145.008;2023-11-18T07:02:37;101615.18;;;19.30;43.35
54870;BME280;40756;-37.950;145.008;2023-11-18T07:05:08;101616.08;;;18.41;44.78
54870;BME280;40756;-37.950;145.008;2023-11-18T07:07:38;101614.03;;;17.77;46.84
54870;BME280;40756;-37.950;145.008;2023-11-18T07:10:08;101615.04;;;17.86;46.16
54870;BME280;40756;-37.950;145.008;2023-11-18T07:12:37;101614.06;;;19.41;44.39
54870;BME280;40756;-37.950;145.008;2023-11-18T07:15:08;101612.50;;;18.44;46.31
54870;BME280;40756;-37.950;145.008;2023-11-18T07:17:37;101615.46;;;18.90;45.81
54870;BME280;40756;-37.950;145.008;2023-11-18T07:20:07;101623.93;;;19.02;44.79
54870;BME280;40756;-37.950;145.008;2023-11-18T07:22:37;101621.63;;;18.26;46.41
54870;BME280;40756;-37.950;145.008;2023-11-18T07:25:07;101612.39;;;18.60;46.18
54870;BME280;40756;-37.950;145.008;2023-11-18T07:27:37;101611.57;;;18.18;46.00
54870;BME280;40756;-37.950;145.008;2023-11-18T07:30:07;101607.93;;;18.48;45.61
54870;BME280;40756;-37.950;145.008;2023-11-18T07:32:38;101610.07;;;17.93;46.76
54870;BME280;40756;-37.950;145.008;2023-11-18T07:35:08;101612.95;;;18.42;46.08
54870;BME280;40756;-37.950;145.008;2023-11-18T07:37:37;101613.41;;;19.30;45.55
54870;BME280;40756;-37.950;145.008;2023-11-18T07:40:07;101613.65;;;18.79;45.89
54870;BME280;40756;-37.950;145.008;2023-11-18T07:42:37;101614.64;;;18.26;47.36
54870;BME280;40756;-37.950;145.008;2023-11-18T07:45:07;101616.25;;;18.29;47.25
54870;BME280;40756;-37.950;145.008;2023-11-18T07:47:37;101616.94;;;17.37;49.67
54870;BME280;40756;-37.950;145.008;2023-11-18T07:50:07;101616.30;;;18.44;47.68
54870;BME280;40756;-37.950;145.008;2023-11-18T07:52:37;101612.65;;;18.39;47.61
54870;BME280;40756;-37.950;145.008;2023-11-18T07:55:07;101616.25;;;19.11;46.17
54870;BME280;40756;-37.950;145.008;2023-11-18T07:57:38;101613.09;;;18.29;47.49
54870;BME280;40756;-37.950;145.008;2023-11-18T08:00:08;101617.78;;;18.66;47.05
54870;BME280;40756;-37.950;145.008;2023-11-18T08:02:38;101619.74;;;18.47;46.84
54870;BME280;40756;-37.950;145.008;2023-11-18T08:05:08;101626.68;;;17.91;47.16
54870;BME280;40756;-37.950;145.008;2023-11-18T08:07:38;101626.34;;;17.87;46.45
54870;BME280;40756;-37.950;145.008;2023-11-18T08:10:08;101628.89;;;18.73;44.82
54870;BME280;40756;-37.950;145.008;2023-11-18T08:12:38;101629.42;;;18.10;45.30
54870;BME280;40756;-37.950;145.008;2023-11-18T08:15:08;101635.11;;;18.28;44.82
54870;BME280;40756;-37.950;145.008;2023-11-18T08:17:38;101638.63;;;18.81;43.94
54870;BME280;40756;-37.950;145.008;2023-11-18T08:20:08;101643.88;;;18.34;44.11
54870;BME280;40756;-37.950;145.008;2023-11-18T08:22:37;101648.19;;;16.32;47.08
54870;BME280;40756;-37.950;145.008;2023-11-18T08:25:08;101647.81;;;17.32;46.63
54870;BME280;40756;-37.950;145.008;2023-11-18T08:27:37;101649.73;;;17.03;46.72
54870;BME280;40756;-37.950;145.008;2023-11-18T08:30:08;101647.52;;;16.59;47.69
54870;BME280;40756;-37.950;145.008;2023-11-18T08:32:38;101645.89;;;18.05;45.62
54870;BME280;40756;-37.950;145.008;2023-11-18T08:35:08;101649.94;;;16.92;47.19
54870;BME280;40756;-37.950;145.008;2023-11-18T08:37:38;101657.00;;;17.34;46.38
54870;BME280;40756;-37.950;145.008;2023-11-18T08:40:09;101656.47;;;16.97;47.35
54870;BME280;40756;-37.950;145.008;2023-11-18T08:42:39;101654.02;;;18.00;45.95
54870;BME280;40756;-37.950;145.008;2023-11-18T08:45:09;101653.89;;;16.89;47.16
54870;BME280;40756;-37.950;145.008;2023-11-18T08:47:39;101654.64;;;17.38;46.64
54870;BME280;40756;-37.950;145.008;2023-11-18T08:50:10;101657.34;;;17.52;45.69
54870;BME280;40756;-37.950;145.008;2023-11-18T08:52:40;101660.82;;;17.12;46.05
54870;BME280;40756;-37.950;145.008;2023-11-18T08:55:10;101664.68;;;16.73;47.08
54870;BME280;40756;-37.950;145.008;2023-11-18T08:57:40;101663.97;;;16.58;47.43
54870;BME280;40756;-37.950;145.008;2023-11-18T09:00:11;101666.20;;;17.47;46.14
54870;BME280;40756;-37.950;145.008;2023-11-18T09:02:41;101671.74;;;16.39;47.79
54870;BME280;40756;-37.950;145.008;2023-11-18T09:05:10;101675.73;;;16.24;48.26
54870;BME280;40756;-37.950;145.008;2023-11-18T09:07:40;101675.02;;;16.88;47.81
54870;BME280;40756;-37.950;145.008;2023-11-18T09:10:10;101676.43;;;16.63;47.50
54870;BME280;40756;-37.950;145.008;2023-11-18T09:12:39;101678.68;;;16.13;48.44
54870;BME280;40756;-37.950;145.008;2023-11-18T09:15:09;101678.87;;;17.46;46.58
54870;BME280;40756;-37.950;145.008;2023-11-18T09:17:38;101681.31;;;15.87;48.42
54870;BME280;40756;-37.950;145.008;2023-11-18T09:20:09;101685.27;;;16.10;49.14
54870;BME280;40756;-37.950;145.008;2023-11-18T09:22:38;101688.24;;;15.68;49.04
54870;BME280;40756;-37.950;145.008;2023-11-18T09:25:09;101690.55;;;16.70;48.13
54870;BME280;40756;-37.950;145.008;2023-11-18T09:27:39;101693.11;;;16.30;48.35
54870;BME280;40756;-37.950;145.008;2023-11-18T09:30:09;101692.71;;;16.72;47.86
54870;BME280;40756;-37.950;145.008;2023-11-18T09:32:40;101692.42;;;15.71;50.13
54870;BME280;40756;-37.950;145.008;2023-11-18T09:35:10;101696.77;;;15.95;50.33
54870;BME280;40756;-37.950;145.008;2023-11-18T09:37:39;101697.73;;;15.84;50.57
54870;BME280;40756;-37.950;145.008;2023-11-18T09:40:13;101700.44;;;15.56;51.27
54870;BME280;40756;-37.950;145.008;2023-11-18T09:42:43;101699.31;;;15.84;50.01
54870;BME280;40756;-37.950;145.008;2023-11-18T09:45:12;101700.59;;;15.72;50.67
54870;BME280;40756;-37.950;145.008;2023-11-18T09:47:44;101703.21;;;15.69;51.22
54870;BME280;40756;-37.950;145.008;2023-11-18T09:50:18;101705.66;;;14.40;53.78
54870;BME280;40756;-37.950;145.008;2023-11-18T09:52:50;101703.86;;;15.36;51.68
54870;BME280;40756;-37.950;145.008;2023-11-18T09:55:29;101704.28;;;15.46;52.39
54870;BME280;40756;-37.950;145.008;2023-11-18T09:58:05;101701.79;;;15.08;52.79
54870;BME280;40756;-37.950;145.008;2023-11-18T10:00:39;101704.94;;;15.38;52.77
54870;BME280;40756;-37.950;145.008;2023-11-18T10:03:09;101709.47;;;14.71;54.03
54870;BME280;40756;-37.950;145.008;2023-11-18T10:05:42;101703.53;;;15.30;53.14
54870;BME280;40756;-37.950;145.008;2023-11-18T10:08:12;101704.13;;;15.22;52.76
54870;BME280;40756;-37.950;145.008;2023-11-18T10:10:42;101703.59;;;15.23;52.39
54870;BME280;40756;-37.950;145.008;2023-11-18T10:13:14;101707.80;;;15.34;51.91
54870;BME280;40756;-37.950;145.008;2023-11-18T10:15:43;101709.94;;;15.73;51.65
54870;BME280;40756;-37.950;145.008;2023-11-18T10:18:13;101711.58;;;14.55;54.18
54870;BME280;40756;-37.950;145.008;2023-11-18T10:20:46;101706.34;;;15.89;51.54
54870;BME280;40756;-37.950;145.008;2023-11-18T10:23:16;101703.56;;;15.17;51.52
54870;BME280;40756;-37.950;145.008;2023-11-18T10:25:48;101701.80;;;14.63;53.26
54870;BME280;40756;-37.950;145.008;2023-11-18T10:28:27;101701.35;;;14.49;53.33
54870;BME280;40756;-37.950;145.008;2023-11-18T10:30:59;101701.78;;;14.72;53.14
54870;BME280;40756;-37.950;145.008;2023-11-18T10:33:30;101702.19;;;15.34;51.48
54870;BME280;40756;-37.950;145.008;2023-11-18T10:36:00;101706.19;;;14.24;53.63
54870;BME280;40756;-37.950;145.008;2023-11-18T10:38:30;101704.14;;;14.79;53.84
54870;BME280;40756;-37.950;145.008;2023-11-18T10:41:00;101702.71;;;14.02;54.80
54870;BME280;40756;-37.950;145.008;2023-11-18T10:43:30;101702.18;;;15.10;53.13
54870;BME280;40756;-37.950;145.008;2023-11-18T10:46:08;101702.01;;;14.86;52.87
54870;BME280;40756;-37.950;145.008;2023-11-18T10:48:39;101705.20;;;15.29;53.03
54870;BME280;40756;-37.950;145.008;2023-11-18T10:51:11;101703.73;;;15.73;51.83
54870;BME280;40756;-37.950;145.008;2023-11-18T10:53:43;101704.93;;;16.28;51.07
54870;BME280;40756;-37.950;145.008;2023-11-18T10:56:20;101708.78;;;16.31;49.25
54870;BME280;40756;-37.950;145.008;2023-11-18T10:58:50;101701.31;;;16.02;49.24
54870;BME280;40756;-37.950;145.008;2023-11-18T11:01:29;101702.95;;;16.88;48.25
54870;BME280;40756;-37.950;145.008;2023-11-18T11:03:59;101705.37;;;16.52;47.65
54870;BME280;40756;-37.950;145.008;2023-11-18T11:06:29;101710.66;;;15.91;48.46
54870;BME280;40756;-37.950;145.008;2023-11-18T11:08:59;101711.98;;;15.62;49.84
54870;BME280;40756;-37.950;145.008;2023-11-18T11:11:35;101710.09;;;15.49;50.44
54870;BME280;40756;-37.950;145.008;2023-11-18T11:14:10;101710.17;;;15.43;49.93
54870;BME280;40756;-37.950;145.008;2023-11-18T11:16:44;101713.05;;;16.26;48.82
54870;BME280;40756;-37.950;145.008;2023-11-18T11:19:23;101715.23;;;15.47;49.97
54870;BME280;40756;-37.950;145.008;2023-11-18T11:22:00;101717.85;;;15.79;49.92
54870;BME280;40756;-37.950;145.008;2023-11-18T11:24:40;101716.60;;;15.58;50.29
54870;BME280;40756;-37.950;145.008;2023-11-18T11:27:17;101722.85;;;14.86;51.90
54870;BME280;40756;-37.950;145.008;2023-11-18T11:29:54;101718.95;;;15.53;51.46
54870;BME280;40756;-37.950;145.008;2023-11-18T11:32:29;101718.71;;;15.23;51.72
54870;BME280;40756;-37.950;145.008;2023-11-18T11:35:03;101721.58;;;15.07;52.09
54870;BME280;40756;-37.950;145.008;2023-11-18T11:37:35;101720.31;;;15.06;52.29
54870;BME280;40756;-37.950;145.008;2023-11-18T11:40:07;101720.51;;;14.04;54.90
54870;BME280;40756;-37.950;145.008;2023-11-18T11:42:36;101723.82;;;15.36;52.70
54870;BME280;40756;-37.950;145.008;2023-11-18T11:45:08;101724.24;;;15.31;52.47
54870;BME280;40756;-37.950;145.008;2023-11-18T11:47:38;101721.91;;;14.93;52.70
54870;BME280;40756;-37.950;145.008;2023-11-18T11:50:13;101717.42;;;14.73;53.30
54870;BME280;40756;-37.950;145.008;2023-11-18T11:52:48;101714.30;;;14.36;53.87
54870;BME280;40756;-37.950;145.008;2023-11-18T11:55:33;101714.10;;;15.12;52.93
54870;BME280;40756;-37.950;145.008;2023-11-18T11:58:03;101708.24;;;14.74;53.37
54870;BME280;40756;-37.950;145.008;2023-11-18T12:00:33;101706.31;;;14.75;52.98
54870;BME280;40756;-37.950;145.008;2023-11-18T12:03:03;101707.92;;;14.67;54.59
54870;BME280;40756;-37.950;145.008;2023-11-18T12:05:42;101710.72;;;14.84;53.13
54870;BME280;40756;-37.950;145.008;2023-11-18T12:08:11;101710.87;;;14.36;54.64
54870;BME280;40756;-37.950;145.008;2023-11-18T12:10:40;101709.16;;;14.27;54.42
54870;BME280;40756;-37.950;145.008;2023-11-18T12:13:20;101706.35;;;14.60;54.46
54870;BME280;40756;-37.950;145.008;2023-11-18T12:15:51;101705.44;;;14.86;54.04
54870;BME280;40756;-37.950;145.008;2023-11-18T12:18:21;101706.78;;;14.50;53.87
54870;BME280;40756;-37.950;145.008;2023-11-18T12:20:51;101703.20;;;15.01;53.39
54870;BME280;40756;-37.950;145.008;2023-11-18T12:23:20;101702.00;;;15.07;53.11
54870;BME280;40756;-37.950;145.008;2023-11-18T12:25:50;101698.66;;;15.12;53.09
54870;BME280;40756;-37.950;145.008;2023-11-18T12:28:24;101696.94;;;14.80;53.45
54870;BME280;40756;-37.950;145.008;2023-11-18T12:30:55;101689.14;;;14.71;54.36
54870;BME280;40756;-37.950;145.008;2023-11-18T12:33:26;101686.96;;;14.94;53.58
54870;BME280;40756;-37.950;145.008;2023-11-18T12:36:37;101683.25;;;14.99;53.29